21D

Lake Elmo Airport

St Paul, Minnesota, USA
METAR K21D 210915Z AUTO 00000KT 10SM CLR 00/M02 A3043 RMK AO2
Observed Flight Rules
Apr-21 @ 09:15 UTC (22 minutes ago) Visual Flight Rules
Visibility Clouds
10 miles
  • Clear skies
Temperatures Readings
Current 0°C / 32°F
Dewpoint -2°C / 28°F
Humidity 87%
Altimeter 30.43" Hg
Pressure 1030 hPa
Elevation 285
METAR K21D 210915Z AUTO 00000KT 10SM CLR 00/M02 A3043 RMK AO2
Observed Flight Rules
Apr-21 @ 09:15 UTC
(22 minutes ago)
VFR
Clouds
  • Clear skies
Temperature Dewpoint
0°C / 32°F -2°C / 28°F
Humidity Altimeter Pressure
87% 30.43" Hg 1030 hPa